Time;durP1;ratioP1;P1;durP2;ratioP2;P2;SDS_P1;SDS_P2;PMS_P1;PMS_P2;Temp;Humidity;BMP_temperature;BMP_pressure;BME280_temperature;BME280_humidity;BME280_pressure;Samples;Min_cycle;Max_cycle;Signal;HPM_P1;HPM_P2
2022/07/02 00:00:05;;;;;;;10.05;8.05;;;;;;;10.07;100.00;96621.16;1028669;28;20084;-72
2022/07/02 00:00:37;;;;;;;9.65;7.45;;;;;;;10.07;100.00;96616.69;1030007;28;20022;-70
2022/07/02 00:01:07;;;;;;;11.15;7.65;;;;;;;10.07;100.00;96611.44;1030214;28;20277;-72
2022/07/02 00:01:38;;;;;;;9.25;7.82;;;;;;;10.06;100.00;96609.88;1026147;28;20270;-70
2022/07/02 00:02:09;;;;;;;12.32;8.07;;;;;;;10.05;100.00;96608.25;1025097;28;20031;-72
2022/07/02 00:02:41;;;;;;;10.23;8.05;;;;;;;10.06;100.00;96606.44;1031464;28;20052;-70
2022/07/02 00:03:14;;;;;;;10.80;7.88;;;;;;;10.05;100.00;96613.50;1030174;28;20273;-73
2022/07/02 00:03:52;;;;;;;14.40;9.00;;;;;;;10.04;100.00;96604.06;1026107;28;20262;-71
2022/07/02 00:04:25;;;;;;;12.23;8.73;;;;;;;10.03;100.00;96609.56;1031531;28;20727;-71
2022/07/02 00:05:00;;;;;;;16.02;8.30;;;;;;;10.02;100.00;96613.97;1030113;28;20273;-71
2022/07/02 00:05:31;;;;;;;12.13;8.63;;;;;;;9.99;100.00;96609.19;1035858;28;20273;-71
2022/07/02 00:06:02;;;;;;;12.27;8.68;;;;;;;9.98;100.00;96610.25;1033377;28;20291;-73
2022/07/02 00:06:35;;;;;;;11.35;8.52;;;;;;;9.95;100.00;96607.31;1029791;28;20770;-72
2022/07/02 00:07:05;;;;;;;12.23;8.40;;;;;;;9.96;100.00;96614.13;1018586;29;20275;-71
2022/07/02 00:07:36;;;;;;;11.30;8.13;;;;;;;9.95;100.00;96604.69;1025474;28;20301;-71
2022/07/02 00:08:06;;;;;;;12.52;8.50;;;;;;;9.92;100.00;96608.56;1025672;28;20089;-70
2022/07/02 00:08:37;;;;;;;12.50;8.13;;;;;;;9.93;100.00;96602.31;1030033;28;20045;-70
2022/07/02 00:09:07;;;;;;;11.52;8.15;;;;;;;9.90;100.00;96610.66;1030449;28;20505;-72
2022/07/02 00:09:38;;;;;;;11.85;6.82;;;;;;;9.92;100.00;96605.94;1035394;28;20650;-72
2022/07/02 00:10:08;;;;;;;10.35;7.00;;;;;;;9.91;100.00;96615.63;1025132;28;20034;-71
2022/07/02 00:10:39;;;;;;;11.18;8.00;;;;;;;9.89;100.00;96619.50;1033907;28;20033;-73
2022/07/02 00:11:09;;;;;;;11.98;7.82;;;;;;;9.87;100.00;96616.34;1020555;28;20027;-72
2022/07/02 00:11:41;;;;;;;10.50;8.23;;;;;;;9.87;100.00;96613.72;1029222;28;20038;-73
2022/07/02 00:12:11;;;;;;;11.60;7.90;;;;;;;9.85;100.00;96613.16;1033679;28;20110;-72
2022/07/02 00:12:42;;;;;;;12.55;7.95;;;;;;;9.85;100.00;96607.91;1034363;28;20779;-71
2022/07/02 00:13:12;;;;;;;12.48;8.30;;;;;;;9.84;100.00;96607.13;1033640;28;20222;-68
2022/07/02 00:13:43;;;;;;;13.27;8.30;;;;;;;9.84;100.00;96611.59;1030041;28;20065;-72
2022/07/02 00:14:14;;;;;;;12.02;8.20;;;;;;;9.84;100.00;96611.59;1022120;29;20066;-72
2022/07/02 00:14:44;;;;;;;12.95;8.50;;;;;;;9.83;100.00;96613.41;1030023;28;20030;-71
2022/07/02 00:15:15;;;;;;;11.65;8.20;;;;;;;9.84;100.00;96619.44;1029834;28;20289;-71
2022/07/02 00:15:46;;;;;;;11.55;8.30;;;;;;;9.83;100.00;96612.63;1033197;28;20028;-74
2022/07/02 00:16:16;;;;;;;13.40;8.80;;;;;;;9.83;100.00;96615.25;1029686;28;20018;-70
2022/07/02 00:16:47;;;;;;;13.77;8.30;;;;;;;9.83;100.00;96617.88;1026445;28;20054;-72
2022/07/02 00:17:17;;;;;;;12.88;8.02;;;;;;;9.82;100.00;96616.25;1024726;28;20038;-71
2022/07/02 00:17:48;;;;;;;12.00;8.77;;;;;;;9.82;100.00;96616.25;1026052;28;20023;-69
2022/07/02 00:18:19;;;;;;;14.25;8.35;;;;;;;9.82;100.00;96614.41;1025214;28;20026;-72
2022/07/02 00:18:49;;;;;;;14.15;8.57;;;;;;;9.83;100.00;96615.25;1029709;28;20022;-71
2022/07/02 00:19:21;;;;;;;13.65;9.23;;;;;;;9.83;100.00;96610.00;1030044;28;20030;-73
2022/07/02 00:19:52;;;;;;;15.65;8.93;;;;;;;9.83;100.00;96618.66;1030062;28;20032;-73
2022/07/02 00:20:23;;;;;;;12.82;9.27;;;;;;;9.83;100.00;96610.00;1029768;28;20265;-72
2022/07/02 00:20:53;;;;;;;13.85;9.10;;;;;;;9.84;100.00;96612.38;1029754;28;20267;-73
2022/07/02 00:21:24;;;;;;;11.55;8.90;;;;;;;9.86;100.00;96609.53;1024530;28;20027;-73
2022/07/02 00:21:54;;;;;;;14.52;9.38;;;;;;;9.84;100.00;96612.38;1027757;28;20031;-71
2022/07/02 00:22:25;;;;;;;14.10;9.38;;;;;;;9.84;100.00;96606.34;1025288;28;20030;-71
2022/07/02 00:22:56;;;;;;;17.40;9.20;;;;;;;9.87;100.00;96613.72;1029517;28;20068;-73
2022/07/02 00:23:26;;;;;;;17.45;10.13;;;;;;;9.88;100.00;96612.69;1021386;28;20594;-72
2022/07/02 00:23:57;;;;;;;17.33;10.65;;;;;;;9.89;100.00;96617.72;1021915;28;20126;-72
2022/07/02 00:24:27;;;;;;;12.18;9.15;;;;;;;9.89;100.00;96614.28;1021797;29;20084;-72
2022/07/02 00:24:58;;;;;;;12.25;8.80;;;;;;;9.88;100.00;96617.94;1025877;28;20479;-71
2022/07/02 00:25:28;;;;;;;14.18;10.10;;;;;;;9.89;100.00;96614.28;1021368;28;20038;-74
2022/07/02 00:26:10;;;;;;;12.48;9.68;;;;;;;9.92;100.00;96605.94;1017754;28;20028;-72
2022/07/02 00:26:53;;;;;;;15.65;9.90;;;;;;;9.93;100.00;96610.16;1017965;29;20534;-72
2022/07/02 00:27:23;;;;;;;13.60;9.70;;;;;;;9.95;100.00;96615.97;1025420;28;20784;-73
2022/07/02 00:27:54;;;;;;;12.82;9.32;;;;;;;9.94;100.00;96601.25;1029770;28;20257;-73
2022/07/02 00:28:25;;;;;;;14.20;9.85;;;;;;;9.96;100.00;96608.88;1029601;28;20547;-72
2022/07/02 00:29:08;;;;;;;14.27;10.60;;;;;;;9.98;100.00;96612.88;1029693;28;20564;-72
2022/07/02 00:29:51;;;;;;;16.85;10.52;;;;;;;9.97;100.00;96613.91;1037501;28;20799;-71
2022/07/02 00:30:22;;;;;;;16.17;9.80;;;;;;;9.98;100.00;96612.88;1037736;28;20264;-72
2022/07/02 00:30:52;;;;;;;14.88;9.50;;;;;;;9.98;100.00;96618.09;1038414;28;20272;-71
2022/07/02 00:31:23;;;;;;;13.05;9.57;;;;;;;9.95;100.00;96617.78;1035554;28;20037;-71
2022/07/02 00:31:53;;;;;;;13.23;9.35;;;;;;;9.95;100.00;96608.09;1032497;28;20025;-70
2022/07/02 00:32:28;;;;;;;14.27;10.00;;;;;;;9.95;100.00;96618.56;1025822;28;20027;-72
2022/07/02 00:32:59;;;;;;;12.48;9.43;;;;;;;9.97;100.00;96618.34;1026390;28;20043;-73
2022/07/02 00:33:30;;;;;;;15.40;10.35;;;;;;;9.93;100.00;96618.03;1021691;29;20766;-73
2022/07/02 00:34:00;;;;;;;16.05;10.23;;;;;;;9.93;100.00;96620.66;1025473;28;20269;-73
2022/07/02 00:34:34;;;;;;;13.57;9.40;;;;;;;9.95;100.00;96618.56;1029739;28;20276;-72
2022/07/02 00:35:09;;;;;;;14.25;9.48;;;;;;;9.92;100.00;96611.19;1029661;28;20034;-73
2022/07/02 00:35:40;;;;;;;11.75;9.07;;;;;;;9.93;100.00;96618.03;1029450;28;20819;-71
2022/07/02 00:36:21;;;;;;;13.65;9.57;;;;;;;9.93;100.00;96619.88;1031140;28;20354;-72
2022/07/02 00:36:52;;;;;;;12.80;9.02;;;;;;;9.91;100.00;96612.22;1036358;28;20363;-72
2022/07/02 00:37:23;;;;;;;12.80;10.00;;;;;;;9.90;100.00;96621.13;1037278;28;20288;-73
2022/07/02 00:37:54;;;;;;;14.85;9.85;;;;;;;9.89;100.00;96616.91;1029820;28;20022;-70
2022/07/02 00:38:24;;;;;;;13.85;9.75;;;;;;;9.92;100.00;96613.81;1021878;29;20709;-73
2022/07/02 00:38:55;;;;;;;15.43;10.10;;;;;;;9.93;100.00;96614.63;1022012;29;20032;-71
2022/07/02 00:39:25;;;;;;;15.60;11.02;;;;;;;9.93;100.00;96612.00;1025997;28;20031;-72
2022/07/02 00:39:55;;;;;;;16.52;11.25;;;;;;;9.94;100.00;96611.75;1030010;28;20060;-70
2022/07/02 00:40:26;;;;;;;15.48;11.40;;;;;;;9.94;100.00;96608.34;1038653;28;20017;-72
2022/07/02 00:40:57;;;;;;;16.55;11.88;;;;;;;9.94;100.00;96611.75;1042209;28;20028;-72
2022/07/02 00:41:28;;;;;;;15.02;10.63;;;;;;;9.97;100.00;96605.25;1029981;28;20085;-72
2022/07/02 00:41:58;;;;;;;15.30;10.40;;;;;;;9.97;100.00;96605.25;1032032;28;20352;-73
2022/07/02 00:42:29;;;;;;;15.15;10.82;;;;;;;9.99;100.00;96609.19;1029505;28;20080;-71
2022/07/02 00:42:59;;;;;;;15.60;11.30;;;;;;;10.00;100.00;96604.78;1029599;28;20102;-71
2022/07/02 00:43:31;;;;;;;16.10;11.38;;;;;;;10.00;100.00;96599.53;1029654;28;20049;-72
2022/07/02 00:44:03;;;;;;;15.75;10.38;;;;;;;9.99;100.00;96606.56;1029749;28;20028;-72
2022/07/02 00:44:34;;;;;;;17.52;12.18;;;;;;;10.00;100.00;96605.56;1029964;28;20649;-71
2022/07/02 00:45:05;;;;;;;14.02;10.57;;;;;;;10.01;100.00;96609.78;1025629;28;20356;-71
2022/07/02 00:45:35;;;;;;;15.48;10.55;;;;;;;10.01;100.00;96609.78;1029695;28;20049;-73
2022/07/02 00:46:06;;;;;;;18.83;11.95;;;;;;;10.00;100.00;96602.94;1025538;28;20293;-73
2022/07/02 00:46:36;;;;;;;13.85;10.30;;;;;;;10.01;100.00;96601.91;1024879;28;20829;-70
2022/07/02 00:47:08;;;;;;;15.25;11.57;;;;;;;9.99;100.00;96601.34;1028404;28;20064;-73
2022/07/02 00:47:39;;;;;;;16.48;11.25;;;;;;;9.99;100.00;96596.09;1029492;28;20026;-71
2022/07/02 00:48:11;;;;;;;20.00;11.65;;;;;;;9.99;100.00;96603.97;1029821;28;20763;-73
2022/07/02 00:48:42;;;;;;;16.05;11.20;;;;;;;10.01;100.00;96606.34;1027093;28;20838;-72
2022/07/02 00:49:13;;;;;;;14.38;10.25;;;;;;;9.99;100.00;96609.19;1033380;28;20863;-71
2022/07/02 00:49:43;;;;;;;13.32;10.25;;;;;;;9.97;100.00;96611.28;1034199;28;20360;-71
2022/07/02 00:50:14;;;;;;;16.63;10.95;;;;;;;9.96;100.00;96609.69;1034137;28;20591;-72
2022/07/02 00:50:44;;;;;;;16.15;10.50;;;;;;;9.95;100.00;96618.56;1037819;28;20029;-73
2022/07/02 00:51:15;;;;;;;21.77;11.88;;;;;;;9.93;100.00;96615.41;1038029;28;20030;-73
2022/07/02 00:51:45;;;;;;;16.63;10.68;;;;;;;9.93;100.00;96612.00;1037357;28;20044;-71
2022/07/02 00:52:16;;;;;;;16.65;11.15;;;;;;;9.90;100.00;96608.03;1036597;28;20076;-72
2022/07/02 00:52:46;;;;;;;18.23;11.73;;;;;;;9.90;100.00;96614.06;1037882;28;20029;-74
2022/07/02 00:53:16;;;;;;;14.90;11.10;;;;;;;9.89;100.00;96609.84;1034048;28;20539;-71
2022/07/02 00:53:48;;;;;;;15.82;10.73;;;;;;;9.88;100.00;96612.69;1022133;28;20503;-72
2022/07/02 00:54:18;;;;;;;16.55;11.43;;;;;;;9.87;100.00;96600.63;1028439;28;20034;-72
2022/07/02 00:54:48;;;;;;;15.63;11.38;;;;;;;9.88;100.00;96610.06;1029703;28;20273;-71
2022/07/02 00:55:19;;;;;;;16.73;11.18;;;;;;;9.86;100.00;96609.53;1030325;28;20042;-73
2022/07/02 00:55:56;;;;;;;18.27;11.90;;;;;;;9.85;100.00;96608.72;1030638;28;20607;-72
2022/07/02 00:56:27;;;;;;;15.68;10.68;;;;;;;9.85;100.00;96613.16;1029108;28;20038;-71
2022/07/02 00:56:57;;;;;;;19.95;11.40;;;;;;;9.86;100.00;96614.78;1021863;29;20365;-72
2022/07/02 00:57:28;;;;;;;17.45;11.68;;;;;;;9.84;100.00;96612.38;1022540;28;20075;-73
2022/07/02 00:57:58;;;;;;;17.08;11.82;;;;;;;9.86;100.00;96612.94;1030131;28;20117;-71
2022/07/02 00:58:29;;;;;;;16.55;11.40;;;;;;;9.86;100.00;96609.53;1033908;28;20052;-71
2022/07/02 00:59:01;;;;;;;18.88;11.60;;;;;;;9.84;100.00;96607.13;1029910;28;20078;-74
2022/07/02 00:59:32;;;;;;;21.10;13.05;;;;;;;9.86;100.00;96604.28;1033913;28;20029;-72
2022/07/02 01:00:02;;;;;;;21.00;12.20;;;;;;;9.84;100.00;96603.72;1029917;28;20258;-72
2022/07/02 01:00:33;;;;;;;22.70;13.45;;;;;;;9.83;100.00;96610.78;1030689;28;20038;-73
2022/07/02 01:01:03;;;;;;;20.70;13.65;;;;;;;9.83;100.00;96610.00;1038471;28;20026;-71
2022/07/02 01:01:34;;;;;;;21.05;13.60;;;;;;;9.81;100.00;96602.34;1035519;28;20029;-73
2022/07/02 01:02:06;;;;;;;22.75;13.02;;;;;;;9.81;100.00;96604.19;1037550;28;20477;-72
2022/07/02 01:02:37;;;;;;;23.33;13.80;;;;;;;9.78;100.00;96602.03;1035000;28;20038;-72
2022/07/02 01:03:07;;;;;;;22.00;13.90;;;;;;;9.78;100.00;96605.44;1030334;28;20320;-72
2022/07/02 01:03:38;;;;;;;19.25;12.23;;;;;;;9.79;100.00;96604.44;1025847;28;20039;-73
2022/07/02 01:04:08;;;;;;;21.33;13.82;;;;;;;9.80;100.00;96607.84;1030036;28;20133;-72
2022/07/02 01:04:39;;;;;;;20.13;13.48;;;;;;;9.80;100.00;96610.47;1025895;28;20027;-72
2022/07/02 01:05:10;;;;;;;23.67;13.80;;;;;;;9.79;100.00;96606.25;1025846;28;20023;-71
2022/07/02 01:05:40;;;;;;;23.40;14.48;;;;;;;9.76;100.00;96610.16;1026690;28;20026;-73
2022/07/02 01:06:10;;;;;;;23.55;14.13;;;;;;;9.76;100.00;96598.84;1026639;28;20038;-72
2022/07/02 01:06:41;;;;;;;25.88;14.35;;;;;;;9.78;100.00;96612.53;1034547;28;20035;-71
2022/07/02 01:07:12;;;;;;;22.50;13.48;;;;;;;9.76;100.00;96602.28;1038724;28;20024;-71
2022/07/02 01:07:45;;;;;;;21.65;12.65;;;;;;;9.75;100.00;96602.50;1037922;28;20287;-71
2022/07/02 01:10:48;;;;;;;20.60;13.30;;;;;;;9.66;100.00;96609.97;1029938;28;20808;-72
2022/07/02 01:11:19;;;;;;;19.70;12.43;;;;;;;9.67;100.00;96606.31;1031992;28;20691;-72
2022/07/02 01:11:49;;;;;;;21.23;12.98;;;;;;;9.66;100.00;96608.13;1032686;28;20272;-71
2022/07/02 01:12:21;;;;;;;21.35;12.52;;;;;;;9.69;100.00;96612.09;1032980;28;20092;-72
2022/07/02 01:12:51;;;;;;;24.85;13.40;;;;;;;9.68;100.00;96607.88;1030119;28;20038;-72
2022/07/02 01:13:21;;;;;;;20.05;12.40;;;;;;;9.68;100.00;96611.31;1026551;28;20270;-73
2022/07/02 01:13:54;;;;;;;22.38;12.63;;;;;;;9.67;100.00;96606.31;1022532;29;20027;-73
2022/07/02 01:14:24;;;;;;;25.42;13.85;;;;;;;9.66;100.00;96605.50;1022669;28;20028;-71
2022/07/02 01:14:56;;;;;;;24.48;13.10;;;;;;;9.64;100.00;96612.81;1022482;28;20267;-73
2022/07/02 01:15:26;;;;;;;19.95;12.57;;;;;;;9.63;100.00;96600.75;1026428;28;20061;-73
2022/07/02 01:15:56;;;;;;;21.40;12.52;;;;;;;9.64;100.00;96604.94;1026914;28;20694;-71
2022/07/02 01:16:27;;;;;;;22.85;13.63;;;;;;;9.64;100.00;96601.53;1025602;28;20035;-71
2022/07/02 01:16:57;;;;;;;22.95;12.38;;;;;;;9.63;100.00;96605.19;1026784;28;20038;-75
2022/07/02 01:17:28;;;;;;;23.40;13.77;;;;;;;9.64;100.00;96606.78;1022494;29;20035;-72
2022/07/02 01:17:58;;;;;;;25.65;13.73;;;;;;;9.62;100.00;96599.16;1024254;28;20886;-71
2022/07/02 01:18:29;;;;;;;25.33;13.68;;;;;;;9.61;100.00;96608.03;1026625;28;20097;-71
2022/07/02 01:18:59;;;;;;;25.23;13.90;;;;;;;9.62;100.00;96607.03;1022820;28;20035;-72
2022/07/02 01:19:30;;;;;;;21.55;13.07;;;;;;;9.63;100.00;96599.94;1022757;28;20067;-74
2022/07/02 01:20:02;;;;;;;23.02;13.45;;;;;;;9.62;100.00;96607.03;1030656;28;20409;-74
2022/07/02 01:20:33;;;;;;;22.65;13.77;;;;;;;9.61;100.00;96605.41;1030482;28;20059;-71
2022/07/02 01:21:03;;;;;;;23.48;14.50;;;;;;;9.60;100.00;96593.34;1030728;28;20317;-72
2022/07/02 01:21:34;;;;;;;21.33;13.48;;;;;;;9.59;100.00;96598.81;1033576;28;20636;-73
2022/07/02 01:22:11;;;;;;;19.45;12.70;;;;;;;9.63;100.00;96605.19;1025901;28;20466;-73
2022/07/02 01:22:44;;;;;;;21.35;13.43;;;;;;;9.61;100.00;96602.00;1030587;28;20030;-71
2022/07/02 01:23:15;;;;;;;20.38;12.77;;;;;;;9.59;100.00;96597.00;1029313;28;20278;-72
2022/07/02 01:23:45;;;;;;;18.73;11.90;;;;;;;9.59;100.00;96599.63;1031644;28;20301;-72
2022/07/02 01:24:23;;;;;;;20.05;12.80;;;;;;;9.60;100.00;96601.22;1030532;28;20042;-71
2022/07/02 01:24:54;;;;;;;24.00;13.85;;;;;;;9.59;100.00;96597.00;1030725;28;20472;-75
2022/07/02 01:25:25;;;;;;;23.08;13.32;;;;;;;9.57;100.00;96599.06;1029141;28;20363;-71
2022/07/02 01:25:55;;;;;;;21.15;13.25;;;;;;;9.57;100.00;96591.19;1027442;28;20125;-71
2022/07/02 01:26:26;;;;;;;21.52;13.02;;;;;;;9.55;100.00;96593.25;1030511;28;20034;-75
2022/07/02 01:26:56;;;;;;;23.38;13.07;;;;;;;9.55;100.00;96593.25;1022329;28;20027;-73
2022/07/02 01:27:26;;;;;;;25.90;14.00;;;;;;;9.56;100.00;96589.63;1022616;29;20483;-70
2022/07/02 01:27:57;;;;;;;21.65;13.60;;;;;;;9.57;100.00;96595.63;1022776;28;20542;-71
2022/07/02 01:28:27;;;;;;;21.92;13.20;;;;;;;9.55;100.00;96593.25;1034606;28;20030;-72
2022/07/02 01:28:58;;;;;;;23.02;13.25;;;;;;;9.54;100.00;96591.66;1042724;28;20013;-73
2022/07/02 01:29:28;;;;;;;22.60;12.77;;;;;;;9.56;100.00;96592.22;1038924;28;20022;-73
2022/07/02 01:29:59;;;;;;;20.55;12.25;;;;;;;9.52;100.00;96593.72;1034511;28;20525;-70
2022/07/02 01:30:29;;;;;;;19.10;11.70;;;;;;;9.54;100.00;96594.28;1026400;28;20029;-71
2022/07/02 01:31:00;;;;;;;17.52;11.75;;;;;;;9.53;100.00;96595.31;1026684;28;20704;-73
2022/07/02 01:31:30;;;;;;;20.02;12.60;;;;;;;9.54;100.00;96591.66;1026780;28;20019;-72
2022/07/02 01:32:01;;;;;;;21.25;12.35;;;;;;;9.54;100.00;96594.28;1025873;28;20141;-72
2022/07/02 01:32:33;;;;;;;22.67;12.90;;;;;;;9.54;100.00;96596.91;1021961;28;20023;-71
2022/07/02 01:33:04;;;;;;;22.30;12.65;;;;;;;9.53;100.00;96597.16;1022694;29;20803;-73
2022/07/02 01:33:34;;;;;;;23.90;13.32;;;;;;;9.52;100.00;96593.72;1026836;28;20291;-72
2022/07/02 01:34:05;;;;;;;22.63;13.32;;;;;;;9.52;100.00;96591.09;1030693;28;20421;-71
2022/07/02 01:35:02;;;;;;;21.83;13.45;;;;;;;9.53;100.00;96591.91;1026644;28;20065;-72
2022/07/02 01:35:33;;;;;;;24.55;13.32;;;;;;;9.51;100.00;96592.13;1022123;28;20089;-71
2022/07/02 01:36:03;;;;;;;23.05;13.02;;;;;;;9.49;100.00;96588.97;1022309;29;20329;-72
2022/07/02 01:36:34;;;;;;;22.88;12.95;;;;;;;9.49;100.00;96596.81;1033517;28;20036;-71
2022/07/02 01:37:07;;;;;;;21.45;12.90;;;;;;;9.49;100.00;96590.75;1034755;28;20034;-71
2022/07/02 01:37:38;;;;;;;21.42;12.60;;;;;;;9.47;100.00;96585.78;1035091;28;20096;-71
2022/07/02 01:38:08;;;;;;;19.67;11.95;;;;;;;9.49;100.00;96588.16;1030614;28;20312;-73
2022/07/02 01:38:39;;;;;;;22.20;13.23;;;;;;;9.47;100.00;96593.63;1030925;28;20520;-72
2022/07/02 01:39:09;;;;;;;19.73;12.55;;;;;;;9.47;100.00;96582.34;1030791;28;20080;-70
2022/07/02 01:39:40;;;;;;;20.48;12.52;;;;;;;9.46;100.00;96589.44;1034820;28;20044;-72
2022/07/02 01:40:11;;;;;;;21.80;12.45;;;;;;;9.47;100.00;96596.25;1034912;28;20041;-71
2022/07/02 01:40:41;;;;;;;21.20;12.30;;;;;;;9.46;100.00;96589.44;1034273;28;20459;-72
2022/07/02 01:42:00;;;;;;;18.25;11.30;;;;;;;9.47;100.00;96592.84;1031108;28;20031;-73
2022/07/02 01:42:31;;;;;;;20.67;11.90;;;;;;;9.45;100.00;96587.81;1034273;28;20928;-73
2022/07/02 01:43:01;;;;;;;19.98;12.13;;;;;;;9.45;100.00;96582.56;1029028;28;20098;-70
2022/07/02 01:43:32;;;;;;;19.40;12.07;;;;;;;9.44;100.00;96588.84;1034480;28;20033;-72
2022/07/02 01:44:02;;;;;;;19.55;12.70;;;;;;;9.43;100.00;96584.66;1034685;28;20525;-75
2022/07/02 01:44:33;;;;;;;21.60;12.98;;;;;;;9.40;100.00;96587.75;1034281;28;20088;-72
2022/07/02 01:45:08;;;;;;;18.67;11.70;;;;;;;9.41;100.00;96589.31;1035249;28;20061;-72
2022/07/02 01:45:38;;;;;;;21.48;11.63;;;;;;;9.39;100.00;96594.00;1029346;28;20804;-70
2022/07/02 01:46:09;;;;;;;23.65;13.15;;;;;;;9.38;100.00;96587.16;1031677;28;20389;-72
2022/07/02 01:46:39;;;;;;;19.95;12.15;;;;;;;9.39;100.00;96591.41;1034391;28;20061;-72
2022/07/02 01:47:10;;;;;;;27.13;11.88;;;;;;;9.39;100.00;96592.19;1030767;28;20049;-71
2022/07/02 01:47:40;;;;;;;21.35;12.45;;;;;;;9.38;100.00;96587.16;1022489;28;20125;-72
2022/07/02 01:48:11;;;;;;;17.08;11.40;;;;;;;9.37;100.00;96589.00;1022610;29;20128;-72
2022/07/02 01:48:41;;;;;;;17.73;11.65;;;;;;;9.35;100.00;96590.25;1022608;28;20031;-71
2022/07/02 01:49:12;;;;;;;19.58;11.57;;;;;;;9.33;100.00;96589.69;1028999;28;20035;-71
2022/07/02 01:49:42;;;;;;;20.45;12.13;;;;;;;9.31;100.00;96594.38;1038778;28;20088;-71
2022/07/02 01:50:13;;;;;;;16.27;10.80;;;;;;;9.31;100.00;96589.13;1038661;28;20096;-74
2022/07/02 01:50:43;;;;;;;18.52;11.73;;;;;;;9.29;100.00;96589.38;1026198;28;20023;-72
2022/07/02 01:51:14;;;;;;;18.92;11.45;;;;;;;9.30;100.00;96587.53;1030775;28;20050;-70
2022/07/02 01:51:44;;;;;;;19.10;11.38;;;;;;;9.30;100.00;96585.72;1021889;28;20047;-71
2022/07/02 01:52:15;;;;;;;16.75;10.68;;;;;;;9.31;100.00;96591.75;1026671;28;20462;-71
2022/07/02 01:52:45;;;;;;;17.88;11.50;;;;;;;9.29;100.00;96588.56;1030210;28;20030;-72
2022/07/02 01:53:16;;;;;;;22.35;11.70;;;;;;;9.30;100.00;96590.16;1030573;28;20038;-71
2022/07/02 01:55:17;;;;;;;20.25;11.40;;;;;;;9.29;100.00;96596.41;1030533;28;20026;-72
2022/07/02 01:55:34;;;;;;;17.02;10.65;;;;;;;9.27;100.00;96595.88;1033221;28;20126;-71
2022/07/02 01:56:05;;;;;;;20.60;11.45;;;;;;;9.26;100.00;96594.28;1037506;28;20878;-72
2022/07/02 01:56:35;;;;;;;18.98;11.40;;;;;;;9.25;100.00;96593.47;1034618;28;20033;-75
2022/07/02 01:57:06;;;;;;;21.45;11.93;;;;;;;9.24;100.00;96593.72;1030460;28;20057;-72
2022/07/02 01:57:36;;;;;;;17.73;11.32;;;;;;;9.23;100.00;96590.31;1026463;28;20030;-71
2022/07/02 01:58:06;;;;;;;22.88;11.90;;;;;;;9.23;100.00;96594.75;1030532;28;20084;-71
2022/07/02 01:58:37;;;;;;;18.85;11.80;;;;;;;9.23;100.00;96584.28;1030596;28;20108;-73
2022/07/02 01:59:07;;;;;;;21.33;11.80;;;;;;;9.20;100.00;96586.31;1030296;28;20034;-71
2022/07/02 01:59:38;;;;;;;18.60;11.70;;;;;;;9.21;100.00;96587.09;1026540;28;20540;-72
2022/07/02 02:00:10;;;;;;;17.92;11.70;;;;;;;9.19;100.00;96589.97;1030502;28;20117;-72
2022/07/02 02:00:41;;;;;;;17.55;11.27;;;;;;;9.19;100.00;96589.97;1030380;28;20536;-71
2022/07/02 02:01:11;;;;;;;21.10;11.63;;;;;;;9.17;100.00;96586.78;1030527;28;20284;-74
2022/07/02 02:01:42;;;;;;;18.63;11.32;;;;;;;9.16;100.00;96585.19;1030101;28;20541;-74
2022/07/02 02:02:12;;;;;;;24.38;11.60;;;;;;;9.17;100.00;96592.00;1030437;28;20563;-69
2022/07/02 02:02:42;;;;;;;23.42;10.85;;;;;;;9.19;100.00;96583.94;1034388;28;20038;-70
2022/07/02 02:03:13;;;;;;;17.23;11.00;;;;;;;9.18;100.00;96588.34;1026353;28;20117;-71
2022/07/02 02:03:43;;;;;;;21.42;12.30;;;;;;;9.20;100.00;96590.75;1026410;28;20049;-73
2022/07/02 02:04:14;;;;;;;20.45;12.63;;;;;;;9.19;100.00;96583.94;1026555;28;20101;-71
2022/07/02 02:04:44;;;;;;;17.85;11.27;;;;;;;9.17;100.00;96589.41;1030787;28;20057;-71
2022/07/02 02:05:15;;;;;;;23.00;12.40;;;;;;;9.15;100.00;96588.84;1034492;28;20631;-71
2022/07/02 02:05:45;;;;;;;17.75;11.40;;;;;;;9.16;100.00;96582.56;1034443;28;20034;-72
2022/07/02 02:06:16;;;;;;;17.77;11.80;;;;;;;9.16;100.00;96589.63;1036735;28;20022;-72
2022/07/02 02:06:46;;;;;;;17.77;10.80;;;;;;;9.17;100.00;96585.97;1038285;28;20029;-70
2022/07/02 02:07:17;;;;;;;27.02;13.15;;;;;;;9.14;100.00;96592.47;1038603;28;20025;-71
2022/07/02 02:07:47;;;;;;;19.17;11.73;;;;;;;9.13;100.00;96585.66;1029720;28;20440;-73
2022/07/02 02:08:18;;;;;;;22.63;12.55;;;;;;;9.12;100.00;96593.72;1022335;28;20054;-72
2022/07/02 02:08:48;;;;;;;19.95;11.35;;;;;;;9.12;100.00;96593.72;1022733;28;20093;-71
2022/07/02 02:09:19;;;;;;;20.15;11.93;;;;;;;9.10;100.00;96591.34;1030293;28;20030;-70
2022/07/02 02:09:50;;;;;;;23.38;12.30;;;;;;;9.10;100.00;96593.97;1030327;28;20034;-72
2022/07/02 02:10:20;;;;;;;17.67;11.88;;;;;;;9.09;100.00;96587.16;1026809;28;20066;-71
2022/07/02 02:10:51;;;;;;;18.42;11.15;;;;;;;9.08;100.00;96593.41;1030251;28;20069;-71
2022/07/02 02:11:21;;;;;;;19.10;11.23;;;;;;;9.08;100.00;96593.41;1029331;28;20191;-72
2022/07/02 02:11:52;;;;;;;21.20;12.02;;;;;;;9.09;100.00;96588.97;1025494;28;20026;-71
2022/07/02 02:12:22;;;;;;;23.02;12.70;;;;;;;9.09;100.00;96594.22;1030470;28;20438;-71
2022/07/02 02:12:52;;;;;;;20.23;12.30;;;;;;;9.07;100.00;96597.03;1026468;28;20064;-71
2022/07/02 02:13:23;;;;;;;20.30;12.00;;;;;;;9.06;100.00;96595.47;1026062;28;20035;-71
2022/07/02 02:13:54;;;;;;;22.50;12.02;;;;;;;9.07;100.00;96596.25;1028088;28;20321;-74
2022/07/02 02:14:24;;;;;;;20.52;12.32;;;;;;;9.07;100.00;96596.25;1023781;28;20034;-69
2022/07/02 02:14:54;;;;;;;21.83;13.10;;;;;;;9.06;100.00;96594.69;1033644;28;20030;-71
2022/07/02 02:15:25;;;;;;;20.90;12.48;;;;;;;9.05;100.00;96599.09;1038160;28;20115;-71
2022/07/02 02:15:55;;;;;;;24.60;12.75;;;;;;;9.01;100.00;96595.34;1046702;28;20032;-71
2022/07/02 02:16:26;;;;;;;23.90;13.43;;;;;;;9.06;100.00;96599.91;1034833;28;20038;-72
2022/07/02 02:16:57;;;;;;;27.55;13.13;;;;;;;9.04;100.00;96599.34;1029935;28;20544;-72
2022/07/02 02:17:27;;;;;;;24.95;12.00;;;;;;;9.04;100.00;96597.50;1026375;28;20270;-72
2022/07/02 02:17:58;;;;;;;21.98;12.13;;;;;;;9.04;100.00;96594.09;1030169;28;20030;-72
2022/07/02 02:18:28;;;;;;;24.60;12.82;;;;;;;9.03;100.00;96595.13;1034607;28;20037;-71
2022/07/02 02:18:59;;;;;;;25.02;12.00;;;;;;;9.01;100.00;96597.97;1034316;28;20030;-71
2022/07/02 02:19:29;;;;;;;21.88;11.98;;;;;;;9.02;100.00;96583.88;1034515;28;20761;-75
2022/07/02 02:20:00;;;;;;;23.98;13.43;;;;;;;9.02;100.00;96594.34;1034459;28;20033;-72
2022/07/02 02:20:30;;;;;;;24.13;12.98;;;;;;;9.00;100.00;96596.38;1034046;28;20034;-71
2022/07/02 02:21:01;;;;;;;22.65;13.68;;;;;;;8.99;100.00;96592.19;1038643;28;20025;-73
2022/07/02 02:21:31;;;;;;;19.55;11.85;;;;;;;9.02;100.00;96593.53;1038434;28;20123;-73
2022/07/02 02:22:02;;;;;;;22.00;11.85;;;;;;;9.01;100.00;96597.97;1036520;28;20100;-73
2022/07/02 02:22:32;;;;;;;19.52;11.52;;;;;;;9.02;100.00;96596.97;1030476;28;20023;-69
2022/07/02 02:23:04;;;;;;;19.55;12.35;;;;;;;9.01;100.00;96597.19;1030512;28;20026;-71
2022/07/02 02:23:35;;;;;;;23.55;12.77;;;;;;;8.99;100.00;96594.81;1030551;28;20026;-71
2022/07/02 02:24:05;;;;;;;22.65;12.48;;;;;;;9.01;100.00;96595.34;1030835;28;20796;-73
2022/07/02 02:24:36;;;;;;;27.17;14.00;;;;;;;9.02;100.00;96594.34;1034409;28;20061;-73
2022/07/02 02:25:06;;;;;;;24.92;13.80;;;;;;;9.01;100.00;96591.94;1034406;28;20042;-73
2022/07/02 02:25:37;;;;;;;31.65;15.18;;;;;;;9.01;100.00;96597.19;1030181;28;20044;-72
2022/07/02 02:26:07;;;;;;;25.52;14.25;;;;;;;9.02;100.00;96598.75;1026174;28;20039;-72
2022/07/02 02:26:38;;;;;;;27.98;14.90;;;;;;;8.99;100.00;96600.03;1026330;28;20030;-72
2022/07/02 02:27:08;;;;;;;23.65;12.82;;;;;;;9.01;100.00;96597.97;1025318;28;20014;-73
2022/07/02 02:27:39;;;;;;;25.73;13.43;;;;;;;9.00;100.00;96599.00;1034551;28;20025;-72
2022/07/02 02:28:09;;;;;;;22.98;12.77;;;;;;;9.00;100.00;96599.00;1038104;28;20509;-70